createdAt,value
2019-04-14T00:02:18.471Z,3.70
2019-04-14T00:04:49.004Z,3.70
2019-04-14T00:07:18.758Z,3.70
2019-04-14T00:09:48.199Z,3.70
2019-04-14T00:12:18.671Z,3.60
2019-04-14T00:14:49.022Z,3.60
2019-04-14T00:17:19.216Z,3.50
2019-04-14T00:19:48.798Z,3.50
2019-04-14T00:22:18.402Z,3.50
2019-04-14T00:24:47.410Z,3.40
2019-04-14T00:27:17.165Z,3.40
2019-04-14T00:29:47.860Z,3.40
2019-04-14T00:32:18.238Z,3.40
2019-04-14T00:35:06.110Z,3.40
2019-04-14T00:37:43.111Z,3.40
2019-04-14T00:40:17.983Z,3.50
2019-04-14T00:42:53.821Z,3.50
2019-04-14T00:45:40.452Z,3.40
2019-04-14T00:48:11.775Z,3.40
2019-04-14T00:50:38.802Z,3.40
2019-04-14T00:53:08.045Z,3.40
2019-04-14T00:55:37.970Z,3.40
2019-04-14T00:58:08.164Z,3.40
2019-04-14T01:00:38.668Z,3.40
2019-04-14T01:03:09.144Z,3.40
2019-04-14T01:05:39.382Z,3.40
2019-04-14T01:08:09.655Z,3.30
2019-04-14T01:10:39.025Z,3.30
2019-04-14T01:13:11.020Z,3.30
2019-04-14T01:15:48.126Z,3.30
2019-04-14T01:18:10.060Z,3.30
2019-04-14T01:20:39.126Z,3.30
2019-04-14T01:23:08.473Z,3.30
2019-04-14T01:25:38.858Z,3.30
2019-04-14T01:28:08.981Z,3.30
2019-04-14T01:30:39.368Z,3.30
2019-04-14T01:33:09.672Z,3.30
2019-04-14T01:35:39.923Z,3.30
2019-04-14T01:38:10.271Z,3.30
2019-04-14T01:40:40.226Z,3.20
2019-04-14T01:43:10.237Z,3.20
2019-04-14T01:45:40.274Z,3.20
2019-04-14T01:48:10.526Z,3.20
2019-04-14T01:50:53.829Z,3.20
2019-04-14T01:53:35.727Z,3.20
2019-04-14T01:56:25.109Z,3.10
2019-04-14T01:58:55.922Z,3.20
2019-04-14T02:01:28.168Z,3.10
2019-04-14T02:03:58.403Z,3.10
2019-04-14T02:06:28.769Z,3.10
2019-04-14T02:08:58.962Z,3.10
2019-04-14T02:11:29.199Z,3.10
2019-04-14T02:13:59.346Z,3.10
2019-04-14T02:16:34.867Z,3.10
2019-04-14T02:19:00.330Z,3.10
2019-04-14T02:21:30.311Z,3.10
2019-04-14T02:24:00.489Z,3.10
2019-04-14T02:26:30.946Z,3.10
2019-04-14T02:29:01.427Z,3.00
2019-04-14T02:31:56.847Z,3.00
2019-04-14T02:34:35.794Z,3.00
2019-04-14T02:39:39.007Z,3.00
2019-04-14T02:44:38.061Z,3.00
2019-04-14T02:49:36.364Z,2.90
2019-04-14T02:52:04.780Z,2.90
2019-04-14T02:54:36.947Z,2.90
2019-04-14T02:57:12.441Z,2.90
2019-04-14T02:59:42.958Z,2.80
2019-04-14T03:02:23.221Z,2.80
2019-04-14T03:07:14.327Z,2.80
2019-04-14T03:09:42.073Z,2.80
2019-04-14T03:12:09.450Z,2.80
2019-04-14T03:17:39.210Z,2.70
2019-04-14T03:20:30.171Z,2.70
2019-04-14T03:23:05.050Z,2.70
2019-04-14T03:25:37.618Z,2.70
2019-04-14T03:28:36.540Z,2.70
2019-04-14T03:34:05.261Z,2.70
2019-04-14T03:41:18.336Z,2.80
2019-04-14T03:43:36.818Z,2.80
2019-04-14T03:46:17.826Z,2.80
2019-04-14T03:48:52.326Z,2.80
2019-04-14T03:53:53.282Z,2.80
2019-04-14T03:56:37.838Z,2.90
2019-04-14T03:59:07.051Z,2.90
2019-04-14T04:01:36.792Z,3.00
2019-04-14T04:04:06.058Z,3.00
2019-04-14T04:06:35.633Z,3.10
2019-04-14T04:09:06.482Z,3.10
2019-04-14T04:11:36.536Z,3.10
2019-04-14T04:14:07.422Z,3.20
2019-04-14T04:16:48.319Z,3.30
2019-04-14T04:19:29.782Z,3.30
2019-04-14T04:22:15.034Z,3.30
2019-04-14T04:24:50.004Z,3.30
2019-04-14T04:27:29.339Z,3.30
2019-04-14T04:30:32.424Z,3.40
2019-04-14T04:33:20.527Z,3.40
2019-04-14T04:36:16.482Z,3.40
2019-04-14T04:38:58.088Z,3.40
2019-04-14T04:41:27.570Z,3.40
2019-04-14T04:43:56.863Z,3.40
2019-04-14T04:46:26.553Z,3.30
2019-04-14T04:49:03.397Z,3.30
2019-04-14T04:51:26.849Z,3.30
2019-04-14T04:53:57.051Z,3.30
2019-04-14T04:56:26.114Z,3.20
2019-04-14T04:58:55.217Z,3.20
2019-04-14T05:01:30.190Z,3.20
2019-04-14T05:04:00.266Z,3.20
2019-04-14T05:07:07.839Z,3.20
2019-04-14T05:09:55.603Z,3.10
2019-04-14T05:12:35.527Z,3.10
2019-04-14T05:15:40.485Z,3.10
2019-04-14T05:18:20.701Z,3.10
2019-04-14T05:20:50.874Z,3.10
2019-04-14T05:23:21.356Z,3.10
2019-04-14T05:25:51.732Z,3.10
2019-04-14T05:28:22.018Z,3.10
2019-04-14T05:30:52.422Z,3.10
2019-04-14T05:33:22.847Z,3.10
2019-04-14T05:35:53.189Z,3.10
2019-04-14T05:38:23.536Z,3.10
2019-04-14T05:40:54.018Z,3.20
2019-04-14T05:43:33.716Z,3.20
2019-04-14T05:45:54.491Z,3.20
2019-04-14T05:48:23.585Z,3.30
2019-04-14T05:50:53.390Z,3.30
2019-04-14T05:53:22.551Z,3.30
2019-04-14T05:55:52.446Z,3.30
2019-04-14T05:58:21.502Z,3.40
2019-04-14T06:00:51.742Z,3.40
2019-04-14T06:03:21.322Z,3.50
2019-04-14T06:05:50.701Z,3.50
2019-04-14T06:08:19.715Z,3.60
2019-04-14T06:10:48.751Z,3.60
2019-04-14T06:13:17.787Z,3.60
2019-04-14T06:15:46.784Z,3.70
2019-04-14T06:18:15.853Z,3.80
2019-04-14T06:20:44.821Z,3.80
2019-04-14T06:23:13.912Z,3.90
2019-04-14T06:25:43.017Z,4.00
2019-04-14T06:28:12.263Z,4.00
2019-04-14T06:31:04.174Z,4.10
2019-04-14T06:33:39.371Z,4.20
2019-04-14T06:36:20.051Z,4.30
2019-04-14T06:38:52.319Z,4.50
2019-04-14T06:41:21.577Z,4.50
2019-04-14T06:43:50.674Z,4.60
2019-04-14T06:46:22.663Z,4.60
2019-04-14T06:48:51.694Z,4.70
2019-04-14T06:51:20.725Z,4.70
2019-04-14T06:53:49.727Z,4.80
2019-04-14T06:56:18.718Z,4.90
2019-04-14T06:58:47.767Z,5.00
2019-04-14T07:01:16.796Z,5.00
2019-04-14T07:03:45.779Z,5.10
2019-04-14T07:06:14.871Z,5.20
2019-04-14T07:08:43.948Z,5.20
2019-04-14T07:11:13.119Z,5.30
2019-04-14T07:13:42.133Z,5.30
2019-04-14T07:16:11.258Z,5.40
2019-04-14T07:18:40.320Z,5.40
2019-04-14T07:21:09.391Z,5.50
2019-04-14T07:23:39.795Z,5.60
2019-04-14T07:26:09.047Z,5.70
2019-04-14T07:28:38.047Z,5.70
2019-04-14T07:31:24.911Z,5.80
2019-04-14T07:34:21.722Z,5.90
2019-04-14T07:37:08.213Z,5.90
2019-04-14T07:39:51.879Z,6.00
2019-04-14T07:42:26.835Z,6.10
2019-04-14T07:45:17.713Z,6.20
2019-04-14T07:48:15.022Z,6.20
2019-04-14T07:50:52.839Z,6.30
2019-04-14T07:53:35.399Z,6.40
2019-04-14T07:56:32.459Z,6.30
2019-04-14T07:59:07.896Z,6.20
2019-04-14T08:01:56.036Z,6.20
2019-04-14T08:04:31.290Z,6.30
2019-04-14T08:07:00.888Z,6.40
2019-04-14T08:09:29.977Z,6.50
2019-04-14T08:11:59.615Z,6.60
2019-04-14T08:14:28.614Z,6.50
2019-04-14T08:16:57.687Z,6.60
2019-04-14T08:19:26.861Z,6.50
2019-04-14T08:21:55.851Z,6.70
2019-04-14T08:24:24.821Z,6.90
2019-04-14T08:26:53.990Z,7.00
2019-04-14T08:29:23.056Z,7.10
2019-04-14T08:31:52.195Z,7.30
2019-04-14T08:34:21.179Z,7.40
2019-04-14T08:36:50.339Z,7.40
2019-04-14T08:39:19.390Z,7.50
2019-04-14T08:41:58.688Z,7.60
2019-04-14T08:44:40.956Z,7.60
2019-04-14T08:47:41.394Z,7.70
2019-04-14T08:50:22.870Z,7.70
2019-04-14T08:52:56.709Z,7.70
2019-04-14T08:55:36.814Z,7.80
2019-04-14T08:58:18.805Z,8.00
2019-04-14T09:01:09.759Z,8.10
2019-04-14T09:03:58.178Z,8.30
2019-04-14T09:06:46.895Z,8.50
2019-04-14T09:09:27.396Z,8.50
2019-04-14T09:12:16.237Z,8.50
2019-04-14T09:14:56.147Z,8.60
2019-04-14T09:17:16.508Z,8.70
2019-04-14T09:19:45.562Z,8.80
2019-04-14T09:22:14.639Z,8.90
2019-04-14T09:24:43.751Z,9.00
2019-04-14T09:27:12.702Z,9.20
2019-04-14T09:29:41.639Z,9.30
2019-04-14T09:32:12.349Z,9.50
2019-04-14T09:34:41.503Z,9.60
2019-04-14T09:37:12.226Z,9.60
2019-04-14T09:39:41.246Z,9.70
2019-04-14T09:42:10.304Z,9.80
2019-04-14T09:44:41.176Z,10.00
2019-04-14T09:47:10.591Z,10.10
2019-04-14T09:49:39.707Z,10.10
2019-04-14T09:52:09.936Z,10.10
2019-04-14T09:54:39.565Z,10.20
2019-04-14T09:57:09.398Z,10.30
2019-04-14T09:59:39.090Z,10.40
2019-04-14T10:02:08.604Z,10.60
2019-04-14T10:04:38.489Z,10.70
2019-04-14T10:07:09.673Z,10.80
2019-04-14T10:09:39.558Z,10.90
2019-04-14T10:12:09.514Z,11.00
2019-04-14T10:14:40.128Z,11.00
2019-04-14T10:17:09.726Z,11.10
2019-04-14T10:19:41.403Z,11.10
2019-04-14T10:22:10.661Z,11.10
2019-04-14T10:24:39.893Z,11.30
2019-04-14T10:27:09.124Z,11.60
2019-04-14T10:29:38.299Z,11.80
2019-04-14T10:32:26.675Z,11.80
2019-04-14T10:34:56.443Z,11.80
2019-04-14T10:37:25.806Z,12.00
2019-04-14T10:39:55.113Z,12.20
2019-04-14T10:42:24.507Z,12.40
2019-04-14T10:44:53.901Z,12.60
2019-04-14T10:47:23.236Z,12.70
2019-04-14T10:49:52.754Z,12.90
2019-04-14T10:52:22.113Z,13.20
2019-04-14T10:54:51.488Z,13.60
2019-04-14T10:57:21.330Z,13.80
2019-04-14T10:59:50.649Z,13.80
2019-04-14T11:02:20.460Z,13.80
2019-04-14T11:04:49.576Z,14.00
2019-04-14T11:07:22.883Z,14.10
2019-04-14T11:09:53.987Z,14.40
2019-04-14T11:12:23.183Z,14.90
2019-04-14T11:14:52.244Z,15.20
2019-04-14T11:17:21.319Z,15.50
2019-04-14T11:19:50.395Z,16.00
2019-04-14T11:22:19.542Z,16.40
2019-04-14T11:24:49.230Z,16.70
2019-04-14T11:27:18.232Z,16.80
2019-04-14T11:29:47.235Z,16.90
2019-04-14T11:32:33.975Z,17.00
2019-04-14T11:35:18.487Z,17.00
2019-04-14T11:38:05.667Z,17.00
2019-04-14T11:40:40.542Z,17.40
2019-04-14T11:43:09.648Z,17.90
2019-04-14T11:45:38.654Z,18.00
2019-04-14T11:48:09.444Z,17.80
2019-04-14T11:50:38.948Z,18.00
2019-04-14T11:53:08.173Z,18.30
2019-04-14T11:55:37.550Z,18.40
2019-04-14T11:58:07.011Z,18.60
2019-04-14T12:00:54.241Z,19.00
2019-04-14T12:03:32.674Z,19.20
2019-04-14T12:06:15.514Z,19.20
2019-04-14T12:08:53.400Z,19.50
2019-04-14T12:11:22.659Z,19.90
2019-04-14T12:13:52.579Z,20.10
2019-04-14T12:16:22.266Z,20.20
2019-04-14T12:18:51.696Z,20.40
2019-04-14T12:21:20.975Z,20.50
2019-04-14T12:23:50.358Z,20.80
2019-04-14T12:26:19.721Z,21.00
2019-04-14T12:28:49.332Z,21.10
2019-04-14T12:31:19.601Z,21.20
2019-04-14T12:33:48.944Z,21.20
2019-04-14T12:36:18.679Z,21.30
2019-04-14T12:38:47.975Z,21.60
2019-04-14T12:41:24.174Z,21.70
2019-04-14T12:44:01.167Z,21.90
2019-04-14T12:46:55.399Z,22.00
2019-04-14T12:49:29.303Z,21.90
2019-04-14T12:52:21.388Z,21.90
2019-04-14T12:54:47.323Z,22.00
2019-04-14T12:57:18.794Z,22.20
2019-04-14T12:59:47.787Z,22.40
2019-04-14T13:02:22.611Z,22.40
2019-04-14T13:04:55.198Z,22.30
2019-04-14T13:07:23.118Z,22.30
2019-04-14T13:09:52.219Z,22.40
2019-04-14T13:12:21.311Z,22.30
2019-04-14T13:14:50.362Z,22.00
2019-04-14T13:17:20.042Z,21.90
2019-04-14T13:19:49.407Z,21.50
2019-04-14T13:22:18.711Z,21.10
2019-04-14T13:24:48.045Z,21.20
2019-04-14T13:27:17.257Z,21.40
2019-04-14T13:29:46.403Z,21.60
2019-04-14T13:32:16.039Z,21.70
2019-04-14T13:34:45.768Z,21.70
2019-04-14T13:37:14.910Z,21.80
2019-04-14T13:39:45.197Z,21.80
2019-04-14T13:42:14.247Z,21.50
2019-04-14T13:44:43.292Z,21.30
2019-04-14T13:47:12.256Z,21.50
2019-04-14T13:49:41.212Z,21.50
2019-04-14T13:52:10.327Z,21.30
2019-04-14T13:54:39.308Z,21.30
2019-04-14T13:57:08.411Z,21.40
2019-04-14T13:59:37.423Z,21.00
2019-04-14T14:02:06.624Z,21.10
2019-04-14T14:04:35.712Z,21.40
2019-04-14T14:07:05.547Z,21.70
2019-04-14T14:09:34.543Z,22.10
2019-04-14T14:12:21.268Z,22.20
2019-04-14T14:15:07.159Z,21.90
2019-04-14T14:17:44.172Z,21.70
2019-04-14T14:20:47.531Z,21.80
2019-04-14T14:23:35.752Z,21.50
2019-04-14T14:26:08.089Z,21.80
2019-04-14T14:28:38.660Z,22.20
2019-04-14T14:31:08.226Z,21.80
2019-04-14T14:33:37.231Z,21.20
2019-04-14T14:36:06.343Z,20.90
2019-04-14T14:38:35.413Z,21.00
2019-04-14T14:41:05.955Z,21.10
2019-04-14T14:43:34.985Z,21.40
2019-04-14T14:46:36.994Z,21.80
2019-04-14T14:49:13.555Z,22.30
2019-04-14T14:51:54.802Z,22.70
2019-04-14T14:54:23.840Z,22.90
2019-04-14T14:56:52.988Z,22.80
2019-04-14T14:59:41.383Z,22.80
2019-04-14T15:02:10.504Z,22.70
2019-04-14T15:04:39.559Z,22.00
2019-04-14T15:07:08.641Z,22.10
2019-04-14T15:09:37.688Z,22.50
2019-04-14T15:12:06.788Z,22.90
2019-04-14T15:14:35.906Z,22.80
2019-04-14T15:17:08.171Z,23.00
2019-04-14T15:19:36.059Z,22.90
2019-04-14T15:22:05.564Z,22.80
2019-04-14T15:24:34.664Z,22.70
2019-04-14T15:27:03.833Z,22.80
2019-04-14T15:29:32.911Z,23.20
2019-04-14T15:32:01.995Z,23.50
2019-04-14T15:34:31.076Z,23.40
2019-04-14T15:37:00.654Z,23.10
2019-04-14T15:39:29.687Z,23.10
2019-04-14T15:41:58.826Z,23.30
2019-04-14T15:44:27.979Z,23.50
2019-04-14T15:46:56.978Z,23.60
2019-04-14T15:49:26.092Z,23.60
2019-04-14T15:51:55.143Z,23.10
2019-04-14T15:54:25.547Z,22.80
2019-04-14T15:57:19.858Z,22.80
2019-04-14T15:59:55.732Z,23.00
2019-04-14T16:02:46.808Z,23.00
2019-04-14T16:05:37.763Z,22.90
2019-04-14T16:08:17.719Z,23.10
2019-04-14T16:11:14.695Z,23.20
2019-04-14T16:14:02.854Z,23.50
2019-04-14T16:16:49.918Z,23.50
2019-04-14T16:19:33.303Z,23.70
2019-04-14T16:22:02.208Z,23.80
2019-04-14T16:24:31.344Z,23.80
2019-04-14T16:27:34.868Z,24.10
2019-04-14T16:30:38.500Z,24.20
2019-04-14T16:33:24.757Z,24.00
2019-04-14T16:35:55.005Z,24.00
2019-04-14T16:38:24.123Z,24.00
2019-04-14T16:40:53.251Z,24.10
2019-04-14T16:43:22.326Z,24.20
2019-04-14T16:45:51.696Z,24.00
2019-04-14T16:48:20.748Z,23.70
2019-04-14T16:50:49.819Z,23.50
2019-04-14T16:53:28.664Z,23.40
2019-04-14T16:56:22.955Z,23.40
2019-04-14T16:58:57.179Z,23.40
2019-04-14T17:01:33.434Z,23.50
2019-04-14T17:04:02.501Z,23.50
2019-04-14T17:06:31.575Z,23.50
2019-04-14T17:09:00.755Z,23.60
2019-04-14T17:11:29.927Z,23.70
2019-04-14T17:14:04.215Z,23.70
2019-04-14T17:16:58.555Z,23.50
2019-04-14T17:19:57.261Z,23.40
2019-04-14T17:22:35.418Z,23.00
2019-04-14T17:25:16.073Z,22.90
2019-04-14T17:28:08.395Z,23.00
2019-04-14T17:30:41.899Z,22.80
2019-04-14T17:33:30.035Z,22.60
2019-04-14T17:36:21.078Z,22.30
2019-04-14T17:39:27.551Z,22.00
2019-04-14T17:42:02.588Z,22.00
2019-04-14T17:44:35.991Z,21.90
2019-04-14T17:47:13.985Z,21.70
2019-04-14T17:49:56.166Z,21.50
2019-04-14T17:52:33.432Z,21.40
2019-04-14T17:55:21.584Z,21.20
2019-04-14T17:57:57.584Z,21.00
2019-04-14T18:00:54.815Z,20.80
2019-04-14T18:03:40.085Z,20.50
2019-04-14T18:06:28.367Z,19.90
2019-04-14T18:09:15.444Z,19.20
2019-04-14T18:12:15.937Z,18.60
2019-04-14T18:15:11.790Z,18.00
2019-04-14T18:17:52.384Z,17.50
2019-04-14T18:20:31.583Z,17.10
2019-04-14T18:23:02.438Z,16.60
2019-04-14T18:25:31.463Z,16.20
2019-04-14T18:28:34.741Z,15.90
2019-04-14T18:31:28.788Z,15.70
2019-04-14T18:34:28.992Z,15.40
2019-04-14T18:37:06.288Z,15.20
2019-04-14T18:40:00.287Z,14.90
2019-04-14T18:42:39.414Z,14.60
2019-04-14T18:45:15.803Z,14.30
2019-04-14T18:47:55.355Z,14.10
2019-04-14T18:50:34.967Z,13.90
2019-04-14T18:53:07.856Z,13.80
2019-04-14T18:56:00.997Z,13.60
2019-04-14T18:58:54.937Z,13.50
2019-04-14T19:01:26.811Z,13.20
2019-04-14T19:03:55.963Z,13.10
2019-04-14T19:06:25.084Z,12.90
2019-04-14T19:08:54.444Z,12.90
2019-04-14T19:11:41.860Z,12.70
2019-04-14T19:14:12.663Z,12.60
2019-04-14T19:16:44.979Z,12.50
2019-04-14T19:19:14.163Z,12.40
2019-04-14T19:21:43.235Z,12.20
2019-04-14T19:24:12.328Z,12.10
2019-04-14T19:26:41.418Z,12.00
2019-04-14T19:29:10.394Z,11.90
2019-04-14T19:31:39.445Z,11.80
2019-04-14T19:34:08.562Z,11.60
2019-04-14T19:36:37.654Z,11.60
2019-04-14T19:39:09.598Z,11.40
2019-04-14T19:41:38.647Z,11.30
2019-04-14T19:44:08.436Z,11.20
2019-04-14T19:46:37.468Z,11.20
2019-04-14T19:49:06.685Z,11.00
2019-04-14T19:51:35.748Z,10.90
2019-04-14T19:54:04.891Z,10.80
2019-04-14T19:56:33.926Z,10.70
2019-04-14T19:59:02.979Z,10.70
2019-04-14T20:01:31.931Z,10.60
2019-04-14T20:04:01.043Z,10.60
2019-04-14T20:06:30.100Z,10.50
2019-04-14T20:08:59.089Z,10.40
2019-04-14T20:11:28.448Z,10.30
2019-04-14T20:13:57.646Z,10.30
2019-04-14T20:16:44.610Z,10.20
2019-04-14T20:19:29.475Z,10.20
2019-04-14T20:22:20.838Z,10.10
2019-04-14T20:24:56.405Z,10.10
2019-04-14T20:27:50.631Z,10.10
2019-04-14T20:30:36.441Z,9.90
2019-04-14T20:33:05.512Z,9.90
2019-04-14T20:35:35.040Z,9.80
2019-04-14T20:38:04.088Z,9.70
2019-04-14T20:40:33.144Z,9.60
2019-04-14T20:43:02.123Z,9.40
2019-04-14T20:45:31.176Z,9.20
2019-04-14T20:48:00.252Z,9.00
2019-04-14T20:50:29.312Z,8.90
2019-04-14T20:52:58.247Z,8.80
2019-04-14T20:55:27.339Z,8.70
2019-04-14T20:57:56.540Z,8.60
2019-04-14T21:00:26.998Z,8.60
2019-04-14T21:03:11.097Z,8.60
2019-04-14T21:05:58.827Z,8.50
2019-04-14T21:08:45.694Z,8.50
2019-04-14T21:11:18.984Z,8.60
2019-04-14T21:13:54.232Z,8.60
2019-04-14T21:16:42.350Z,8.60
2019-04-14T21:19:21.650Z,8.50
2019-04-14T21:22:04.715Z,8.30
2019-04-14T21:24:52.766Z,8.30
2019-04-14T21:27:39.840Z,8.20
2019-04-14T21:30:29.946Z,8.10
2019-04-14T21:33:12.999Z,8.10
2019-04-14T21:35:49.036Z,8.00
2019-04-14T21:38:43.423Z,8.00
2019-04-14T21:41:24.396Z,7.90
2019-04-14T21:43:53.391Z,7.80
2019-04-14T21:46:22.880Z,7.80
2019-04-14T21:48:51.854Z,7.70
2019-04-14T21:51:22.491Z,7.60
2019-04-14T21:53:51.519Z,7.60
2019-04-14T21:56:21.379Z,7.60
2019-04-14T21:58:55.879Z,7.60
2019-04-14T22:01:52.151Z,7.60
2019-04-14T22:04:40.109Z,7.60
2019-04-14T22:07:26.859Z,7.50
2019-04-14T22:09:59.658Z,7.50
2019-04-14T22:12:28.679Z,7.50
2019-04-14T22:14:57.658Z,7.50
2019-04-14T22:17:26.643Z,7.50
2019-04-14T22:19:55.754Z,7.50
2019-04-14T22:22:24.847Z,7.50
2019-04-14T22:24:54.160Z,7.50
2019-04-14T22:27:23.291Z,7.50
2019-04-14T22:29:52.347Z,7.50
2019-04-14T22:32:21.564Z,7.50
2019-04-14T22:34:50.627Z,7.40
2019-04-14T22:37:19.745Z,7.40
2019-04-14T22:39:48.765Z,7.40
2019-04-14T22:42:17.731Z,7.40
2019-04-14T22:44:46.753Z,7.30
2019-04-14T22:47:15.767Z,7.30
2019-04-14T22:49:44.827Z,7.20
2019-04-14T22:52:13.703Z,7.20
2019-04-14T22:54:42.849Z,7.20
2019-04-14T22:57:11.883Z,7.20
2019-04-14T22:59:40.973Z,7.20
2019-04-14T23:02:15.210Z,7.10
2019-04-14T23:04:59.735Z,7.10
2019-04-14T23:07:51.206Z,7.00
2019-04-14T23:10:30.291Z,7.00
2019-04-14T23:13:24.202Z,7.00
2019-04-14T23:16:15.143Z,7.00
2019-04-14T23:18:53.048Z,6.90
2019-04-14T23:21:48.584Z,6.90
2019-04-14T23:24:22.982Z,6.90
2019-04-14T23:26:53.208Z,6.90
2019-04-14T23:29:22.494Z,6.90
2019-04-14T23:31:51.575Z,6.90
2019-04-14T23:34:20.701Z,6.90
2019-04-14T23:36:49.672Z,6.90
2019-04-14T23:39:18.739Z,6.80
2019-04-14T23:41:47.835Z,6.80
2019-04-14T23:44:17.074Z,6.80
2019-04-14T23:46:46.170Z,6.80
2019-04-14T23:49:15.228Z,6.80
2019-04-14T23:51:44.392Z,6.70
2019-04-14T23:54:13.520Z,6.70
2019-04-14T23:56:42.548Z,6.70
2019-04-14T23:59:11.642Z,6.70
